Lindberg Crosby — WCO9247 — position and weather

sailwx.info

Track history (hours):
 
Tides and Currents Weather Stations Pressure Air Temp Water Temp Dewpoint Dewpoint Depression Visibility Wind Speed Wind Dir Waves Ship Positions

Lindberg Crosby

Owner: CROSBY, KURT, GOLDEN MEADOW, LA. More information available from US FCC via Universal Licensing System and Coast Guard Vessel Documentation Center.

Last reported at 2017-Nov-17 15:48 UTC. Time now 2017-Nov-19 06:33 UTC.
Position N 29°32' W 094°54'.

Length 18 m; draft 2.6 m.

Type: Tug. MMSI: 366978460.

Date/timePositionNaut miles runAvg speedWind from/ knotsBaromVisibWave heightAir tempDewpointWater temp
2017-Nov-17 15:48N 29°32' W 094°54'2 7.3
2017-Nov-17 15:30N 29°34' W 094°55'4 7.2
2017-Nov-17 15:00N 29°37' W 094°57'4 7.3
2017-Nov-17 14:30N 29°40' W 094°59'3 5.9
2017-Nov-17 14:00N 29°42' W 095°01'0 0.0
2017-Nov-16 02:08N 29°42' W 095°01'2 6.1
2017-Nov-16 01:53N 29°42' W 094°59'2 6.0
2017-Nov-16 01:30N 29°40' W 094°58'3 6.4
2017-Nov-16 01:00N 29°37' W 094°57'3 6.3
2017-Nov-16 00:30N 29°34' W 094°55'2 0.0
2017-Nov-13 23:00N 29°32' W 094°54'3 6.6
2017-Nov-13 22:30N 29°35' W 094°56'3 6.6
2017-Nov-13 22:00N 29°37' W 094°58'  
2017-Nov-10 03:29N 29°32' W 094°54'3 5.6
2017-Nov-10 03:00N 29°34' W 094°56'3 6.3
2017-Nov-10 02:30N 29°37' W 094°57'3 6.2
2017-Nov-10 02:00N 29°40' W 094°59'3 6.2
2017-Nov-10 01:30N 29°42' W 095°01'2 4.2
2017-Nov-10 00:57N 29°44' W 095°03'3 6.1
2017-Nov-10 00:28N 29°46' W 095°05'3 6.3
2017-Nov-10 00:00N 29°44' W 095°08'4 5.6
2017-Nov-09 23:13N 29°43' W 095°13'1 0.1
2017-Nov-09 06:56N 29°43' W 095°15'0 0.0
2017-Nov-09 06:30N 29°43' W 095°15'0 0.0
2017-Nov-09 05:54N 29°43' W 095°15'0 0.8
2017-Nov-09 05:29N 29°43' W 095°14'3 6.5
2017-Nov-09 04:58N 29°45' W 095°11'  
Track history (hours):
 
Tides and Currents Weather Stations Pressure Air Temp Water Temp Dewpoint Dewpoint Depression Visibility Wind Speed Wind Dir Waves Ship Positions

Lindberg Crosby

Owner: CROSBY, KURT, GOLDEN MEADOW, LA. More information available from US FCC via Universal Licensing System and Coast Guard Vessel Documentation Center.

Last reported at 2017-Nov-17 15:48 UTC. Time now 2017-Nov-19 06:33 UTC.
Position N 29°32' W 094°54'.

Length 18 m; draft 2.6 m.

Type: Tug. MMSI: 366978460.

Date/timePositionNaut miles runAvg speedWind from/ knotsBaromVisibWave heightAir tempDewpointWater temp
2017-Nov-17 15:48N 29°32' W 094°54'2 7.3
2017-Nov-17 15:30N 29°34' W 094°55'4 7.2
2017-Nov-17 15:00N 29°37' W 094°57'4 7.3
2017-Nov-17 14:30N 29°40' W 094°59'3 5.9
2017-Nov-17 14:00N 29°42' W 095°01'0 0.0
2017-Nov-16 02:08N 29°42' W 095°01'2 6.1
2017-Nov-16 01:53N 29°42' W 094°59'2 6.0
2017-Nov-16 01:30N 29°40' W 094°58'3 6.4
2017-Nov-16 01:00N 29°37' W 094°57'3 6.3
2017-Nov-16 00:30N 29°34' W 094°55'2 0.0
2017-Nov-13 23:00N 29°32' W 094°54'3 6.6
2017-Nov-13 22:30N 29°35' W 094°56'3 6.6
2017-Nov-13 22:00N 29°37' W 094°58'  
2017-Nov-10 03:29N 29°32' W 094°54'3 5.6
2017-Nov-10 03:00N 29°34' W 094°56'3 6.3
2017-Nov-10 02:30N 29°37' W 094°57'3 6.2
2017-Nov-10 02:00N 29°40' W 094°59'3 6.2
2017-Nov-10 01:30N 29°42' W 095°01'2 4.2
2017-Nov-10 00:57N 29°44' W 095°03'3 6.1
2017-Nov-10 00:28N 29°46' W 095°05'3 6.3
2017-Nov-10 00:00N 29°44' W 095°08'4 5.6
2017-Nov-09 23:13N 29°43' W 095°13'1 0.1
2017-Nov-09 06:56N 29°43' W 095°15'0 0.0
2017-Nov-09 06:30N 29°43' W 095°15'0 0.0
2017-Nov-09 05:54N 29°43' W 095°15'0 0.8
2017-Nov-09 05:29N 29°43' W 095°14'3 6.5
2017-Nov-09 04:58N 29°45' W 095°11'  

Dump ship's entire track history